Time;durP1;ratioP1;P1;durP2;ratioP2;P2;SDS_P1;SDS_P2;PMS_P1;PMS_P2;Temp;Humidity;BMP_temperature;BMP_pressure;BME280_temperature;BME280_humidity;BME280_pressure;Samples;Min_cycle;Max_cycle;Signal;HPM_P1;HPM_P2
2023/04/23 00:00:18;;;;;;;7.97;2.17;;;15.30;89.80;;;;;;7408660;19;20011;-72
2023/04/23 00:02:48;;;;;;;9.32;2.60;;;15.20;90.00;;;;;;7390191;19;20027;-71
2023/04/23 00:05:18;;;;;;;6.32;1.92;;;15.20;90.10;;;;;;7386037;19;20075;-71
2023/04/23 00:07:47;;;;;;;7.25;2.28;;;15.20;90.10;;;;;;7386540;19;19999;-72
2023/04/23 00:10:16;;;;;;;10.88;2.17;;;15.20;90.00;;;;;;7385426;19;20007;-71
2023/04/23 00:12:45;;;;;;;9.50;2.05;;;15.20;90.00;;;;;;7383796;19;20003;-72
2023/04/23 00:15:20;;;;;;;12.18;1.92;;;15.20;90.20;;;;;;7407478;19;20006;-71
2023/04/23 00:17:49;;;;;;;4.97;2.13;;;15.20;89.90;;;;;;7385055;19;20011;-71
2023/04/23 00:20:17;;;;;;;7.40;2.08;;;15.10;90.00;;;;;;7383997;19;20011;-73
2023/04/23 00:22:46;;;;;;;8.85;2.00;;;15.10;90.00;;;;;;7386490;19;20010;-72
2023/04/23 00:25:15;;;;;;;10.73;2.63;;;15.10;89.90;;;;;;7385836;19;20003;-71
2023/04/23 00:27:44;;;;;;;9.80;2.13;;;15.10;90.00;;;;;;7384310;19;20006;-71
2023/04/23 00:30:13;;;;;;;9.85;2.50;;;15.10;89.90;;;;;;7407392;19;20011;-71
2023/04/23 00:32:44;;;;;;;6.25;1.90;;;15.00;90.00;;;;;;7384279;19;20252;-71
2023/04/23 00:35:13;;;;;;;9.98;2.80;;;15.00;90.00;;;;;;7382778;19;20007;-72
2023/04/23 00:37:41;;;;;;;9.25;2.92;;;15.00;90.20;;;;;;7383856;19;20023;-70
2023/04/23 00:40:11;;;;;;;6.82;2.40;;;15.00;90.00;;;;;;7384699;19;20007;-70
2023/04/23 00:42:41;;;;;;;6.40;1.83;;;15.00;90.00;;;;;;7383918;19;20381;-70
2023/04/23 00:45:11;;;;;;;8.23;2.05;;;15.00;89.90;;;;;;7406146;19;20007;-71
2023/04/23 00:47:41;;;;;;;8.57;2.10;;;14.90;90.00;;;;;;7382342;19;20014;-71
2023/04/23 00:50:13;;;;;;;8.23;2.33;;;15.00;90.00;;;;;;7383957;19;20019;-71
2023/04/23 00:52:42;;;;;;;8.13;2.33;;;14.90;90.00;;;;;;7383565;19;19998;-71
2023/04/23 00:55:11;;;;;;;11.43;2.58;;;14.90;90.10;;;;;;7383830;19;20390;-72
2023/04/23 00:57:41;;;;;;;7.05;2.20;;;14.90;89.80;;;;;;7381652;19;20292;-71
2023/04/23 01:00:12;;;;;;;8.75;2.53;;;14.80;89.90;;;;;;7406056;19;20026;-72
2023/04/23 01:02:43;;;;;;;13.40;2.65;;;14.80;90.00;;;;;;7387432;19;20002;-71
2023/04/23 01:05:17;;;;;;;8.15;1.77;;;14.80;90.00;;;;;;7383282;19;20086;-72
2023/04/23 01:07:46;;;;;;;8.57;2.28;;;14.80;90.10;;;;;;7382429;19;20070;-72
2023/04/23 01:10:15;;;;;;;10.02;2.55;;;14.80;90.20;;;;;;7383566;19;20009;-71
2023/04/23 01:12:44;;;;;;;6.53;2.22;;;14.80;90.20;;;;;;7383317;19;20002;-71
2023/04/23 01:15:13;;;;;;;8.20;2.05;;;14.80;90.10;;;;;;7404459;19;20011;-72
2023/04/23 01:17:42;;;;;;;6.78;2.20;;;14.80;90.00;;;;;;7384325;19;20003;-72
2023/04/23 01:20:14;;;;;;;10.60;2.30;;;14.80;89.90;;;;;;7383710;19;20062;-72
2023/04/23 01:22:45;;;;;;;5.63;1.70;;;14.70;90.10;;;;;;7384263;19;20074;-71
2023/04/23 01:25:14;;;;;;;8.48;2.28;;;14.70;90.10;;;;;;7383717;19;20023;-71
2023/04/23 01:27:43;;;;;;;11.88;2.70;;;14.70;90.10;;;;;;7381935;19;20110;-71
2023/04/23 01:30:12;;;;;;;15.23;2.22;;;14.70;90.00;;;;;;7402913;19;20350;-71
2023/04/23 01:32:42;;;;;;;7.57;2.30;;;14.70;90.00;;;;;;7382763;19;20007;-71
2023/04/23 01:35:12;;;;;;;15.43;2.17;;;14.70;90.00;;;;;;7383115;19;20061;-71
2023/04/23 01:37:42;;;;;;;15.75;2.58;;;14.60;90.00;;;;;;7383405;19;20019;-71
2023/04/23 01:40:13;;;;;;;11.80;2.28;;;14.60;89.90;;;;;;7383015;19;20354;-71
2023/04/23 01:42:42;;;;;;;9.38;2.40;;;14.60;90.10;;;;;;7382321;19;20471;-71
2023/04/23 01:45:12;;;;;;;9.63;2.15;;;14.60;90.00;;;;;;7404142;19;20257;-71
2023/04/23 01:47:42;;;;;;;12.40;2.70;;;14.50;90.10;;;;;;7380895;19;20014;-72
2023/04/23 01:50:11;;;;;;;13.02;2.55;;;14.60;90.00;;;;;;7381762;19;20006;-71
2023/04/23 01:52:40;;;;;;;11.55;2.15;;;14.50;90.20;;;;;;7382130;19;20023;-71
2023/04/23 01:55:10;;;;;;;10.02;2.35;;;14.50;90.30;;;;;;7382201;19;20003;-71
2023/04/23 01:57:42;;;;;;;10.50;2.15;;;14.40;90.30;;;;;;7382231;19;20009;-72
2023/04/23 02:00:13;;;;;;;7.60;1.88;;;14.40;90.30;;;;;;7404123;19;20031;-71
2023/04/23 02:02:43;;;;;;;9.18;1.88;;;14.40;90.30;;;;;;7385322;19;20006;-71
2023/04/23 02:05:14;;;;;;;7.22;2.13;;;14.40;90.10;;;;;;7381744;19;20007;-71
2023/04/23 02:07:43;;;;;;;8.38;2.35;;;14.50;90.10;;;;;;7381113;19;20070;-71
2023/04/23 02:10:13;;;;;;;14.85;2.30;;;14.50;90.00;;;;;;7381756;19;20009;-72
2023/04/23 02:12:45;;;;;;;10.35;1.90;;;14.40;90.00;;;;;;7381669;19;20011;-72
2023/04/23 02:15:15;;;;;;;12.30;2.20;;;14.40;90.10;;;;;;7403702;19;20010;-71
2023/04/23 02:17:44;;;;;;;8.43;2.30;;;14.40;90.10;;;;;;7381539;19;20027;-71
2023/04/23 02:20:13;;;;;;;5.78;1.98;;;14.40;90.00;;;;;;7380714;19;20003;-71
2023/04/23 02:22:44;;;;;;;9.75;2.20;;;14.40;90.00;;;;;;7382019;19;20048;-71
2023/04/23 02:25:14;;;;;;;12.35;2.20;;;14.40;90.20;;;;;;7381091;19;20006;-71
2023/04/23 02:27:46;;;;;;;11.83;3.27;;;14.40;90.10;;;;;;7380953;19;20027;-71
2023/04/23 02:30:15;;;;;;;14.15;2.33;;;14.40;89.90;;;;;;7403981;19;20010;-70
2023/04/23 02:32:44;;;;;;;6.13;2.08;;;14.40;89.60;;;;;;7380859;19;20003;-70
2023/04/23 02:35:12;;;;;;;13.77;2.47;;;14.30;89.40;;;;;;7380106;19;20117;-70
2023/04/23 02:37:41;;;;;;;4.30;2.30;;;14.30;89.60;;;;;;7381126;19;20012;-70
2023/04/23 02:40:11;;;;;;;9.13;2.22;;;14.30;89.90;;;;;;7379964;19;20264;-71
2023/04/23 02:42:40;;;;;;;12.98;2.17;;;14.20;89.90;;;;;;7381382;19;20006;-71
2023/04/23 02:45:12;;;;;;;7.55;2.00;;;14.30;89.60;;;;;;7403972;19;20091;-71
2023/04/23 02:47:41;;;;;;;14.07;2.33;;;14.30;89.40;;;;;;7380754;19;20007;-72
2023/04/23 02:50:10;;;;;;;6.38;2.03;;;14.20;89.50;;;;;;7381050;19;20051;-71
2023/04/23 02:52:39;;;;;;;12.30;3.08;;;14.20;89.40;;;;;;7380733;19;20006;-72
2023/04/23 02:55:09;;;;;;;11.88;2.58;;;14.20;89.40;;;;;;7380508;19;20006;-71
2023/04/23 02:57:39;;;;;;;12.57;2.10;;;14.20;89.20;;;;;;7381556;19;20404;-71
2023/04/23 03:00:14;;;;;;;13.18;2.45;;;14.20;88.80;;;;;;7407791;19;20285;-71
2023/04/23 03:02:42;;;;;;;10.38;2.25;;;14.10;89.00;;;;;;7387573;19;20003;-71
2023/04/23 03:05:11;;;;;;;10.13;2.00;;;14.10;89.60;;;;;;7387150;19;20175;-72
2023/04/23 03:07:40;;;;;;;10.30;2.22;;;14.10;89.60;;;;;;7385551;19;20006;-71
2023/04/23 03:10:10;;;;;;;11.70;2.10;;;14.10;89.20;;;;;;7387342;19;20006;-71
2023/04/23 03:12:39;;;;;;;13.75;2.55;;;14.10;89.20;;;;;;7387515;19;20080;-72
2023/04/23 03:15:11;;;;;;;8.88;2.28;;;14.00;89.30;;;;;;7409471;19;20027;-72
2023/04/23 03:17:40;;;;;;;14.50;2.55;;;14.00;89.30;;;;;;7386801;19;20019;-71
2023/04/23 03:20:11;;;;;;;7.55;1.80;;;14.00;89.10;;;;;;7385577;19;20023;-71
2023/04/23 03:22:40;;;;;;;6.47;2.25;;;14.00;89.10;;;;;;7386160;19;20380;-71
2023/04/23 03:25:10;;;;;;;11.35;2.60;;;14.00;89.50;;;;;;7387126;19;20472;-71
2023/04/23 03:27:40;;;;;;;12.93;2.30;;;14.00;89.50;;;;;;7384668;19;20026;-71
2023/04/23 03:30:12;;;;;;;7.50;2.00;;;13.90;89.30;;;;;;7405618;19;20397;-72
2023/04/23 03:32:41;;;;;;;9.85;2.38;;;13.90;89.30;;;;;;7386347;19;20003;-72
2023/04/23 03:35:11;;;;;;;13.95;2.05;;;13.90;89.40;;;;;;7386188;19;20003;-72
2023/04/23 03:37:39;;;;;;;8.05;2.10;;;14.00;89.50;;;;;;7388097;19;20002;-72
2023/04/23 03:40:10;;;;;;;11.57;2.42;;;13.90;89.30;;;;;;7387934;19;20011;-72
2023/04/23 03:42:39;;;;;;;4.15;1.98;;;13.90;89.20;;;;;;7388182;19;19996;-72
2023/04/23 03:45:12;;;;;;;11.82;2.30;;;13.90;89.10;;;;;;7405070;19;20292;-72
2023/04/23 03:47:40;;;;;;;11.35;2.72;;;13.90;89.50;;;;;;7385816;19;20026;-71
2023/04/23 03:50:11;;;;;;;13.68;2.03;;;13.90;89.30;;;;;;7385443;19;20409;-72
2023/04/23 03:52:40;;;;;;;10.13;2.60;;;13.90;88.80;;;;;;7387154;19;20002;-71
2023/04/23 03:55:11;;;;;;;8.75;2.55;;;13.90;89.10;;;;;;7390265;19;19999;-71
2023/04/23 03:57:39;;;;;;;6.60;2.08;;;13.90;89.10;;;;;;7384499;19;20000;-72
2023/04/23 04:00:13;;;;;;;11.05;2.58;;;13.90;89.00;;;;;;7407991;19;20010;-71
2023/04/23 04:02:42;;;;;;;9.95;2.42;;;13.80;89.40;;;;;;7385674;19;20013;-71
2023/04/23 04:05:12;;;;;;;6.22;2.25;;;13.80;89.70;;;;;;7385392;19;20011;-71
2023/04/23 04:07:41;;;;;;;6.13;2.28;;;13.80;89.40;;;;;;7384874;19;20086;-71
2023/04/23 04:10:10;;;;;;;12.10;2.80;;;13.80;89.30;;;;;;7383694;19;20082;-71
2023/04/23 04:12:40;;;;;;;7.10;2.60;;;13.80;89.90;;;;;;7385195;19;20011;-71
2023/04/23 04:15:14;;;;;;;10.15;3.08;;;13.80;90.20;;;;;;7404811;19;20026;-71
2023/04/23 04:17:44;;;;;;;15.75;2.80;;;13.80;90.50;;;;;;7385182;19;20011;-72
2023/04/23 04:20:14;;;;;;;9.18;3.22;;;13.90;90.70;;;;;;7383777;19;20014;-72
2023/04/23 04:22:42;;;;;;;12.68;3.40;;;13.90;90.90;;;;;;7385208;19;20002;-71
2023/04/23 04:25:12;;;;;;;14.00;3.20;;;13.90;91.10;;;;;;7384401;19;20027;-72
2023/04/23 04:27:40;;;;;;;16.55;2.92;;;14.00;91.10;;;;;;7385552;19;19992;-71
2023/04/23 04:30:13;;;;;;;16.05;3.13;;;14.00;91.20;;;;;;7404202;19;20229;-72
2023/04/23 04:32:44;;;;;;;11.60;3.45;;;14.00;91.40;;;;;;7384533;19;20006;-72
2023/04/23 04:35:14;;;;;;;19.13;3.35;;;14.00;91.50;;;;;;7383843;19;20006;-72
2023/04/23 04:37:43;;;;;;;12.57;3.58;;;14.10;91.60;;;;;;7384509;19;20023;-72
2023/04/23 04:40:13;;;;;;;8.75;3.30;;;14.20;91.70;;;;;;7383369;19;20007;-71
2023/04/23 04:42:42;;;;;;;16.58;3.70;;;14.20;91.60;;;;;;7384269;19;20011;-71
2023/04/23 04:45:14;;;;;;;10.35;3.40;;;14.20;91.60;;;;;;7405732;19;20006;-71
2023/04/23 04:47:42;;;;;;;10.80;3.33;;;14.20;91.60;;;;;;7384390;19;20365;-70
2023/04/23 04:50:12;;;;;;;9.23;3.53;;;14.20;91.50;;;;;;7386552;19;20007;-71
2023/04/23 04:52:41;;;;;;;8.93;3.15;;;14.20;91.70;;;;;;7384303;19;20011;-71
2023/04/23 04:55:11;;;;;;;16.55;3.83;;;14.20;91.70;;;;;;7383602;19;20080;-70
2023/04/23 04:57:39;;;;;;;15.80;3.53;;;14.20;91.70;;;;;;7381960;19;20501;-71
2023/04/23 05:00:28;;;;;;;19.98;3.03;;;14.30;91.80;;;;;;7405274;19;20366;-71
2023/04/23 05:02:58;;;;;;;15.00;3.65;;;14.30;91.80;;;;;;7383250;19;20007;-71
2023/04/23 05:05:28;;;;;;;10.88;3.22;;;14.30;91.70;;;;;;7383995;19;20023;-71
2023/04/23 05:07:58;;;;;;;11.32;3.22;;;14.40;91.80;;;;;;7383887;19;19999;-71
2023/04/23 05:10:27;;;;;;;16.02;3.60;;;14.40;91.70;;;;;;7384735;19;20006;-71
2023/04/23 05:12:56;;;;;;;9.60;3.28;;;14.40;91.70;;;;;;7383897;19;20266;-71
2023/04/23 05:15:27;;;;;;;14.75;3.17;;;14.40;91.80;;;;;;7381377;19;20010;-71
2023/04/23 05:17:56;;;;;;;12.40;3.25;;;14.40;91.90;;;;;;7404848;19;20017;-72
2023/04/23 05:20:24;;;;;;;14.45;2.85;;;14.50;91.90;;;;;;7382145;19;20346;-71
2023/04/23 05:22:53;;;;;;;18.13;3.65;;;14.50;91.80;;;;;;7381861;19;20006;-71
2023/04/23 05:25:22;;;;;;;8.38;3.03;;;14.60;91.80;;;;;;7381852;19;20075;-71
2023/04/23 05:27:51;;;;;;;11.27;3.10;;;14.60;91.70;;;;;;7381591;19;19999;-71
2023/04/23 05:30:19;;;;;;;12.50;3.63;;;14.60;91.60;;;;;;7400390;19;20023;-73
2023/04/23 05:32:51;;;;;;;13.27;3.42;;;14.60;91.70;;;;;;7401908;19;20082;-70
2023/04/23 05:35:19;;;;;;;11.38;3.55;;;14.60;92.00;;;;;;7382376;19;20060;-70
2023/04/23 05:37:48;;;;;;;17.63;3.53;;;14.70;91.70;;;;;;7381451;19;20007;-71
2023/04/23 05:40:17;;;;;;;13.90;3.45;;;14.70;91.60;;;;;;7383155;19;20002;-71
2023/04/23 05:42:45;;;;;;;16.13;3.42;;;14.80;91.50;;;;;;7383087;19;20071;-71
2023/04/23 05:45:14;;;;;;;10.93;3.20;;;14.70;91.50;;;;;;7402533;19;20014;-71
2023/04/23 05:47:43;;;;;;;13.48;3.10;;;14.80;91.60;;;;;;7385725;19;20011;-71
2023/04/23 05:50:14;;;;;;;15.48;3.22;;;14.80;91.60;;;;;;7381603;19;20070;-71
2023/04/23 05:52:42;;;;;;;;;;;14.80;91.60;;;;;;7383118;19;20020;-71
2023/04/23 05:55:14;;;;;;;13.15;3.00;;;14.90;91.60;;;;;;7382781;19;19924;-71
2023/04/23 05:57:42;;;;;;;;;;;14.90;91.50;;;;;;7383381;19;20025;-71
2023/04/23 06:00:12;;;;;;;14.43;3.17;;;14.90;91.50;;;;;;7402563;19;19918;-71
2023/04/23 06:02:41;;;;;;;9.55;3.20;;;14.90;91.40;;;;;;7381468;19;20006;-71
2023/04/23 06:05:14;;;;;;;16.60;3.70;;;14.80;91.50;;;;;;7381933;19;20006;-71
2023/04/23 06:07:42;;;;;;;14.27;3.10;;;14.80;91.50;;;;;;7381184;19;20007;-71
2023/04/23 06:10:12;;;;;;;16.25;3.22;;;14.90;91.60;;;;;;7380958;19;20010;-71
2023/04/23 06:12:41;;;;;;;21.35;5.47;;;14.90;91.60;;;;;;7382914;19;20133;-71
2023/04/23 06:15:11;;;;;;;14.50;6.38;;;14.90;91.70;;;;;;7400801;19;20078;-70
2023/04/23 06:17:40;;;;;;;11.27;4.15;;;14.80;91.70;;;;;;7381198;19;20326;-70
2023/04/23 06:20:10;;;;;;;15.95;3.50;;;14.90;91.70;;;;;;7381175;19;20007;-71
2023/04/23 06:22:42;;;;;;;11.02;3.20;;;14.90;91.80;;;;;;7381455;19;20007;-71
2023/04/23 06:25:11;;;;;;;;;;;14.90;91.80;;;;;;7382166;19;20094;-71
2023/04/23 06:27:39;;;;;;;11.98;2.88;;;15.00;91.90;;;;;;7381238;19;20148;-71
2023/04/23 06:30:10;;;;;;;11.90;4.05;;;14.90;91.90;;;;;;7400886;19;20013;-71
2023/04/23 06:32:38;;;;;;;18.45;3.42;;;14.90;92.10;;;;;;7380264;19;20046;-71
2023/04/23 06:35:08;;;;;;;17.30;3.80;;;15.00;92.20;;;;;;7379112;19;20003;-71
2023/04/23 06:37:37;;;;;;;9.20;3.55;;;14.90;92.30;;;;;;7380928;19;20070;-71
2023/04/23 06:40:10;;;;;;;16.55;3.97;;;15.00;92.60;;;;;;7380905;19;20010;-71
2023/04/23 06:42:38;;;;;;;19.15;4.13;;;15.00;92.70;;;;;;7380566;19;20006;-72
2023/04/23 06:45:08;;;;;;;12.77;3.85;;;15.00;92.80;;;;;;7400237;19;20014;-72
2023/04/23 06:47:37;;;;;;;11.20;4.22;;;14.90;92.90;;;;;;7380020;19;20395;-72
2023/04/23 06:50:07;;;;;;;14.70;4.03;;;14.90;93.20;;;;;;7380177;19;20007;-72
2023/04/23 06:52:36;;;;;;;15.38;4.30;;;14.90;93.40;;;;;;7379488;19;20088;-72
2023/04/23 06:55:08;;;;;;;10.38;3.80;;;14.90;93.40;;;;;;7378884;19;20274;-72
2023/04/23 06:57:37;;;;;;;11.77;3.63;;;15.00;93.60;;;;;;7379224;19;20011;-72
2023/04/23 07:00:08;;;;;;;22.40;4.07;;;14.90;93.60;;;;;;7401813;19;20014;-72
2023/04/23 07:02:37;;;;;;;15.10;4.72;;;15.00;93.70;;;;;;7379560;19;20010;-72
2023/04/23 07:05:07;;;;;;;13.30;4.10;;;15.00;93.90;;;;;;7379907;19;20002;-72
2023/04/23 07:07:37;;;;;;;14.88;4.35;;;15.00;93.90;;;;;;7380507;19;20070;-72
2023/04/23 07:10:10;;;;;;;19.05;5.70;;;14.90;93.90;;;;;;7379830;19;20010;-72
2023/04/23 07:12:40;;;;;;;11.65;4.78;;;14.90;93.90;;;;;;7381435;19;20058;-71
2023/04/23 07:15:10;;;;;;;27.10;10.75;;;15.00;94.10;;;;;;7402594;19;20013;-72
2023/04/23 07:17:38;;;;;;;14.38;4.85;;;15.00;94.20;;;;;;7379341;19;20007;-72
2023/04/23 07:20:09;;;;;;;19.73;5.50;;;15.00;94.20;;;;;;7379225;19;20074;-72
2023/04/23 07:22:37;;;;;;;13.80;5.20;;;15.00;94.30;;;;;;7379715;19;20039;-72
2023/04/23 07:25:10;;;;;;;62.42;8.75;;;15.00;94.30;;;;;;7378246;19;20074;-72
2023/04/23 07:27:39;;;;;;;15.20;5.05;;;15.00;94.30;;;;;;7380864;19;20019;-72
2023/04/23 07:30:09;;;;;;;14.48;5.15;;;15.00;94.40;;;;;;7399868;19;20007;-72
2023/04/23 07:32:38;;;;;;;16.83;5.32;;;15.00;94.50;;;;;;7379900;19;20322;-72
2023/04/23 07:35:09;;;;;;;10.13;5.10;;;15.00;94.50;;;;;;7379251;19;20417;-72
2023/04/23 07:37:37;;;;;;;16.52;5.00;;;15.00;94.50;;;;;;7379380;19;20007;-73
2023/04/23 07:40:10;;;;;;;8.85;4.38;;;15.10;94.60;;;;;;7381530;19;20003;-72
2023/04/23 07:42:39;;;;;;;13.65;5.30;;;15.10;94.50;;;;;;7379639;19;20007;-72
2023/04/23 07:45:10;;;;;;;20.05;6.55;;;15.10;94.50;;;;;;7400501;19;20014;-72
2023/04/23 07:47:38;;;;;;;18.80;5.85;;;15.10;94.50;;;;;;7385686;19;20254;-72
2023/04/23 07:50:09;;;;;;;16.55;6.18;;;15.10;94.70;;;;;;7383524;19;20015;-72
2023/04/23 07:52:38;;;;;;;8.00;5.82;;;15.00;94.80;;;;;;7386251;19;20066;-72
2023/04/23 07:55:10;;;;;;;13.02;6.80;;;15.10;95.00;;;;;;7385814;19;20413;-73
2023/04/23 07:57:39;;;;;;;29.67;7.20;;;15.00;95.20;;;;;;7384236;19;20006;-72
2023/04/23 08:00:11;;;;;;;15.45;6.63;;;15.10;95.30;;;;;;7404823;19;20072;-73
2023/04/23 08:02:39;;;;;;;;;;;15.10;95.40;;;;;;7385766;19;20007;-72
2023/04/23 08:05:08;;;;;;;15.75;6.25;;;15.20;95.60;;;;;;7385635;19;20165;-73
2023/04/23 08:07:38;;;;;;;10.40;6.38;;;15.20;95.50;;;;;;7385853;19;20116;-73
2023/04/23 08:10:10;;;;;;;11.73;6.53;;;15.20;95.60;;;;;;7384883;19;19999;-72
2023/04/23 08:12:39;;;;;;;15.20;6.60;;;15.20;95.70;;;;;;7385839;19;20390;-73
2023/04/23 08:15:09;;;;;;;10.55;6.65;;;15.30;95.70;;;;;;7408380;19;20010;-72
2023/04/23 08:17:38;;;;;;;11.95;6.20;;;15.30;95.70;;;;;;7386410;19;20478;-73
2023/04/23 08:31:22;;;;;;;12.00;7.20;;;15.50;96.00;;;;;;7357365;19;20041;-72
2023/04/23 08:33:51;;;;;;;13.13;7.00;;;15.60;95.90;;;;;;7382800;19;20032;-72
2023/04/23 08:36:20;;;;;;;12.13;6.53;;;15.60;95.70;;;;;;7409691;19;20223;-72
2023/04/23 08:38:49;;;;;;;12.98;7.10;;;15.60;95.60;;;;;;7384263;19;20054;-73
2023/04/23 08:44:09;;;;;;;12.00;6.93;;;15.60;95.60;;;;;;7324681;19;20017;-71
2023/04/23 08:46:44;;;;;;;15.88;6.82;;;15.60;95.60;;;;;;7382251;19;20027;-72
2023/04/23 08:49:16;;;;;;;11.45;7.15;;;15.60;95.70;;;;;;7386169;19;19998;-72
2023/04/23 08:51:51;;;;;;;12.32;6.82;;;15.70;96.00;;;;;;7386230;19;20019;-72
2023/04/23 08:54:26;;;;;;;9.85;6.88;;;15.70;95.90;;;;;;7408886;19;20018;-72
2023/04/23 08:56:59;;;;;;;9.00;6.43;;;15.70;95.90;;;;;;7386130;19;20011;-72
2023/04/23 08:59:28;;;;;;;12.70;6.72;;;15.70;95.90;;;;;;7386881;19;20219;-72
2023/04/23 09:02:00;;;;;;;11.25;6.78;;;15.70;95.90;;;;;;7385981;19;20088;-71
2023/04/23 09:04:30;;;;;;;11.85;6.25;;;15.80;96.10;;;;;;7387587;19;20090;-72
2023/04/23 09:06:59;;;;;;;15.50;7.40;;;15.90;96.00;;;;;;7386912;19;20014;-71
2023/04/23 09:09:30;;;;;;;10.88;7.20;;;16.00;96.00;;;;;;7385637;19;20027;-72
2023/04/23 09:12:00;;;;;;;11.10;6.95;;;16.00;96.20;;;;;;7410283;19;20010;-72
2023/04/23 09:20:55;;;;;;;14.73;7.07;;;16.10;95.70;;;;;;7325031;19;20007;-72
2023/04/23 09:23:24;;;;;;;12.45;7.18;;;16.10;95.40;;;;;;7379791;19;20082;-72
2023/04/23 09:25:53;;;;;;;12.65;6.75;;;16.10;95.40;;;;;;7380296;19;20019;-72
2023/04/23 09:28:22;;;;;;;11.63;6.35;;;16.10;95.50;;;;;;7384123;19;20020;-71
2023/04/23 09:30:51;;;;;;;9.80;6.68;;;16.10;95.40;;;;;;7382667;19;20012;-72
2023/04/23 09:33:19;;;;;;;8.95;5.63;;;16.10;95.40;;;;;;7402166;19;20051;-74
2023/04/23 09:35:50;;;;;;;11.20;5.95;;;16.20;95.30;;;;;;7383577;19;20082;-72
2023/04/23 09:38:23;;;;;;;10.38;6.80;;;16.20;95.20;;;;;;7381082;19;20023;-72
2023/04/23 09:40:52;;;;;;;10.77;6.18;;;16.20;95.30;;;;;;7381292;19;20011;-72
2023/04/23 09:43:21;;;;;;;12.65;6.32;;;16.20;95.60;;;;;;7380191;19;20022;-72
2023/04/23 09:45:50;;;;;;;8.50;6.10;;;16.20;95.80;;;;;;7381294;19;20006;-72
2023/04/23 09:48:19;;;;;;;14.27;6.32;;;16.30;95.50;;;;;;7400298;19;20242;-72
2023/04/23 09:50:48;;;;;;;8.10;6.07;;;16.40;95.30;;;;;;7378655;19;20405;-72
2023/04/23 09:53:16;;;;;;;12.82;6.15;;;16.40;95.20;;;;;;7380657;19;20015;-72
2023/04/23 09:55:48;;;;;;;13.35;6.22;;;16.30;94.60;;;;;;7380865;19;20006;-72
2023/04/23 09:58:18;;;;;;;13.02;5.75;;;16.20;94.60;;;;;;7379333;19;20006;-72
2023/04/23 10:00:46;;;;;;;19.40;9.18;;;16.20;94.80;;;;;;7381604;19;20255;-73
2023/04/23 10:03:15;;;;;;;11.98;7.05;;;16.10;94.60;;;;;;7403681;19;20011;-72
2023/04/23 10:05:45;;;;;;;12.43;6.68;;;16.10;94.80;;;;;;7380828;19;20010;-73
2023/04/23 10:08:16;;;;;;;11.35;6.38;;;16.10;94.80;;;;;;7379905;19;20007;-76
2023/04/23 10:10:49;;;;;;;14.23;8.60;;;16.10;94.50;;;;;;7380460;19;20007;-73
2023/04/23 10:13:19;;;;;;;14.25;9.23;;;16.10;94.60;;;;;;7379349;19;20003;-72
2023/04/23 10:15:48;;;;;;;15.02;8.57;;;16.20;94.70;;;;;;7378867;19;20010;-74
2023/04/23 10:18:17;;;;;;;11.02;7.40;;;16.20;94.90;;;;;;7403244;19;20288;-73
2023/04/23 10:20:46;;;;;;;9.23;6.28;;;16.20;94.70;;;;;;7381260;19;20006;-74
2023/04/23 10:23:15;;;;;;;8.75;6.55;;;16.30;94.50;;;;;;7379534;19;20062;-74
2023/04/23 10:25:45;;;;;;;10.50;6.22;;;16.20;94.30;;;;;;7376324;19;20027;-74
2023/04/23 10:28:20;;;;;;;9.23;5.38;;;16.30;94.60;;;;;;7377947;19;20031;-74
2023/04/23 10:30:50;;;;;;;12.55;5.60;;;16.30;94.60;;;;;;7381393;19;20007;-75
2023/04/23 10:33:19;;;;;;;10.43;6.25;;;16.40;94.40;;;;;;7403699;19;20006;-72
2023/04/23 10:35:49;;;;;;;10.95;7.00;;;16.40;94.50;;;;;;7380649;19;20094;-72
2023/04/23 10:38:17;;;;;;;6.80;4.82;;;16.40;94.20;;;;;;7377902;19;20023;-72
2023/04/23 10:40:55;;;;;;;11.82;4.30;;;16.40;94.20;;;;;;7378304;19;20054;-78
2023/04/23 10:43:26;;;;;;;7.78;4.68;;;16.40;94.00;;;;;;7378745;19;20240;-72
2023/04/23 10:45:55;;;;;;;7.43;4.50;;;16.40;93.80;;;;;;7378731;19;20020;-72
2023/04/23 10:48:24;;;;;;;8.98;4.07;;;16.30;93.70;;;;;;7396354;19;20032;-73
2023/04/23 10:51:00;;;;;;;8.02;4.40;;;16.40;93.90;;;;;;7398693;19;20060;-73
2023/04/23 10:53:32;;;;;;;8.98;5.22;;;16.30;93.90;;;;;;7379490;19;20006;-73
2023/04/23 10:56:08;;;;;;;9.35;4.30;;;16.30;93.90;;;;;;7379947;19;20009;-72
2023/04/23 10:58:55;;;;;;;6.65;4.28;;;16.20;93.80;;;;;;7378047;19;20003;-72
2023/04/23 11:01:27;;;;;;;5.85;3.80;;;16.20;93.90;;;;;;7379157;19;20002;-74
2023/04/23 11:03:55;;;;;;;7.97;4.25;;;16.20;93.90;;;;;;7377733;19;20010;-73
2023/04/23 11:06:55;;;;;;;8.65;3.90;;;16.20;94.20;;;;;;7398927;19;20285;-72
2023/04/23 11:09:34;;;;;;;6.05;3.80;;;16.20;94.20;;;;;;7401718;19;20241;-72
2023/04/23 11:12:04;;;;;;;7.43;3.88;;;16.20;94.00;;;;;;7380334;19;19998;-72
2023/04/23 11:14:45;;;;;;;6.65;3.53;;;16.30;94.00;;;;;;7379533;19;20107;-72
2023/04/23 11:17:15;;;;;;;9.20;3.50;;;16.20;93.80;;;;;;7379443;19;20483;-72
2023/04/23 11:20:05;;;;;;;7.85;3.30;;;16.20;94.00;;;;;;7378746;19;20239;-72
2023/04/23 11:22:37;;;;;;;4.65;3.33;;;16.20;94.10;;;;;;7383754;19;20062;-73
2023/04/23 11:25:06;;;;;;;;;;;16.20;94.10;;;;;;7386120;19;20006;-72
2023/04/23 11:27:35;;;;;;;7.20;3.15;;;16.30;94.20;;;;;;7384362;19;19931;-72
2023/04/23 11:30:07;;;;;;;5.50;3.20;;;16.20;93.90;;;;;;7409251;19;20010;-72
2023/04/23 11:32:36;;;;;;;8.85;3.30;;;16.10;93.90;;;;;;7390648;19;20014;-72
2023/04/23 11:35:08;;;;;;;4.63;3.70;;;16.00;94.30;;;;;;7380973;19;20014;-72
2023/04/23 11:37:41;;;;;;;4.63;3.35;;;15.90;94.80;;;;;;7390785;19;20006;-73
2023/04/23 11:40:12;;;;;;;6.18;3.78;;;15.80;95.40;;;;;;7387070;19;20014;-72
2023/04/23 11:42:45;;;;;;;7.03;3.80;;;15.70;95.80;;;;;;7387382;19;20070;-72
2023/04/23 11:45:21;;;;;;;7.35;3.70;;;15.50;96.40;;;;;;7409533;19;20286;-73
2023/04/23 11:47:54;;;;;;;8.00;4.00;;;15.50;96.80;;;;;;7382325;19;20006;-73
2023/04/23 11:50:24;;;;;;;6.18;2.88;;;15.50;96.90;;;;;;7388635;19;20011;-72
2023/04/23 11:52:54;;;;;;;8.73;2.90;;;15.10;97.20;;;;;;7387418;19;20075;-73
2023/04/23 11:55:23;;;;;;;10.40;3.60;;;15.20;97.20;;;;;;7384576;19;20007;-73
2023/04/23 11:57:53;;;;;;;8.70;3.72;;;15.30;97.20;;;;;;7408650;19;20102;-73
2023/04/23 12:00:27;;;;;;;9.43;5.18;;;15.50;97.40;;;;;;7408289;19;20014;-73
2023/04/23 12:02:58;;;;;;;7.15;3.30;;;15.50;97.10;;;;;;7385326;19;20057;-73
2023/04/23 12:05:31;;;;;;;5.00;2.37;;;15.60;97.10;;;;;;7388033;19;20653;-74
2023/04/23 12:08:10;;;;;;;7.45;2.13;;;15.30;97.60;;;;;;7386763;19;20009;-73
2023/04/23 12:10:45;;;;;;;8.90;1.80;;;15.50;97.30;;;;;;7385547;19;20007;-73
2023/04/23 12:13:18;;;;;;;7.63;1.95;;;15.00;97.20;;;;;;7384580;19;20422;-74
2023/04/23 12:15:52;;;;;;;14.50;1.63;;;15.30;97.30;;;;;;7406602;19;20062;-73
2023/04/23 12:18:21;;;;;;;2.35;1.40;;;15.20;96.80;;;;;;7387283;19;20003;-73
2023/04/23 12:20:50;;;;;;;2.65;1.60;;;15.10;97.10;;;;;;7386463;19;20011;-74
2023/04/23 12:23:18;;;;;;;4.53;1.40;;;15.10;96.40;;;;;;7386964;19;20006;-74
2023/04/23 12:25:47;;;;;;;3.92;1.33;;;15.10;96.50;;;;;;7387851;19;20338;-73
2023/04/23 12:28:16;;;;;;;3.20;0.85;;;15.20;96.30;;;;;;7385861;19;20032;-74
2023/04/23 12:30:46;;;;;;;6.13;2.05;;;15.10;96.30;;;;;;7403924;19;20024;-73
2023/04/23 12:33:17;;;;;;;36.38;18.15;;;15.10;96.40;;;;;;7384490;19;20013;-74
2023/04/23 12:35:47;;;;;;;;;;;15.10;96.40;;;;;;7386160;19;20007;-73
2023/04/23 12:38:25;;;;;;;12.27;4.75;;;15.30;96.10;;;;;;7387093;19;19939;-73
2023/04/23 12:40:55;;;;;;;5.53;3.20;;;15.20;95.70;;;;;;7387645;19;20389;-74
2023/04/23 12:43:25;;;;;;;9.68;7.53;;;15.30;94.90;;;;;;7388860;19;20010;-74
2023/04/23 12:45:54;;;;;;;0.60;0.50;;;15.40;95.30;;;;;;7390243;19;20015;-72
2023/04/23 12:48:26;;;;;;;3.72;1.23;;;15.20;94.50;;;;;;7406834;19;20011;-73
2023/04/23 12:50:55;;;;;;;3.00;1.00;;;14.90;95.10;;;;;;7384178;19;20011;-73
2023/04/23 12:53:23;;;;;;;1.38;1.27;;;15.10;95.40;;;;;;7383809;19;20015;-73
2023/04/23 12:55:52;;;;;;;2.53;1.10;;;15.20;95.30;;;;;;7384184;19;20361;-72
2023/04/23 12:58:21;;;;;;;0.82;0.40;;;15.10;95.30;;;;;;7384989;19;20086;-73
2023/04/23 13:00:49;;;;;;;1.08;0.40;;;15.00;95.50;;;;;;7408685;19;20010;-73
2023/04/23 13:03:18;;;;;;;0.95;0.50;;;15.00;95.20;;;;;;7391432;19;20014;-73
2023/04/23 13:05:50;;;;;;;4.45;0.60;;;15.30;94.80;;;;;;7386088;19;20003;-72
2023/04/23 13:08:21;;;;;;;1.85;0.30;;;15.50;94.20;;;;;;7385933;19;20014;-77
2023/04/23 13:10:49;;;;;;;0.77;0.20;;;15.30;93.90;;;;;;7383178;19;19999;-74
2023/04/23 13:13:18;;;;;;;0.38;0.30;;;15.30;93.00;;;;;;7384176;19;20452;-73
2023/04/23 13:15:47;;;;;;;0.80;0.40;;;14.80;92.80;;;;;;7404682;19;20082;-74
2023/04/23 13:18:15;;;;;;;1.60;0.47;;;14.80;92.60;;;;;;7385902;19;20006;-74